Aktualne dane pomiarowe

Uwaga, wersja testowa! Automatyczne pobieranie danych za pomocą narzędzi lub skryptów to umożliwiających jest zabronione.

Dane meteo z obszaru Polski uzyskane na podstawie depesz SYNOP pobieranych co godzinę z NWS. Najedź myszką na symbol przedstawiony w tabeli, aby uzyskać informacje co do jego znaczenia. Prosimy pamiętać, że to testowa wersja strony, która jeszcze nie jest ukończona. Stworzono również jest krótki FAQ dotyczący korzystania z tej podstrony Anomalie temperatury w chwili obecnej odniesione są do okresu referencyjnego 1951-2016. Okres ten będzie później zmieniony na 1981-2010. Kliknij ikonę aby pobrać plik CSV. Kliknij ikonę aby wygenerować mapę synoptyczną dla danego terminu.

Wybierz Datę:    

        

Kasprowy Wierch (12650)

Dane terminowe dla wybranej stacji. Kliknij datę, aby otrzymać dane z tego terminu dla wszystkich stacji.

TemperaturaZachmurzenieWiatrCiśnienieOpadyPogoda
 Data t td wb tx tn tg rh  Nt Nl Cl Cm Ch ws wd g1 g2 wx mslp ppp ch 24h 12h t ww ww w1 w2  
2019-06-30 23:00:00 17.0 -2.2 8.1--- 2750.0wx-wx10wx--10- 808.3 -0.1---------
2019-06-30 22:00:00 16.5 -0.7 8.3--- 3150.0wx-wx11wx--11- 808.3 -0.3---------
2019-06-30 21:00:00 16.7 -1.0 8.3--- 3050.0wx-wx11wx-1711- 808.4 -0.3---------
2019-06-30 20:00:00 16.8 -0.9 8.4--- 3050.0wx-wxwx11wx---- 808.4 -0.7---------
2019-06-30 19:00:00 17.1 1.5 9.3--- 3550.0wx-10wx--10- 808.6 -0.7---------
2019-06-30 18:00:00 17.8 4.0 10.5 22.6 14.7- 4050.0wx-10wx-810- 808.7 -0.8- 0.012------
2019-06-30 17:00:00 18.9 4.6 11.3--- 3950.0wx-4wx--4- 809.1 -0.6---------
2019-06-30 16:00:00 20.9 4.9 12.3--- 3550.0wx-4wx--4- 809.3 -0.5---------
2019-06-30 15:00:00 22.3 4.3 12.7--- 3150.0wx-3wx883- 809.5 -0.4---------
2019-06-30 14:00:00 21.3 5.2 12.6--- 3550.0wx-4wx-84- 809.7 -0.2---------
2019-06-30 13:00:00 20.3 5.9 12.4--- 3950.0wx-4wx--4- 809.8 0.0---------
2019-06-30 12:00:00 20.0 5.6 12.2--- 3950.0wx-2wx--2- 809.9 0.3- 0.06------
2019-06-30 11:00:00 20.1 5.7 12.3--- 3950.0wx-2wx--2- 809.9 0.6---------
2019-06-30 10:00:00 18.7 7.2 12.2--- 4750.0wx-2wx--2- 809.8 0.8---------
2019-06-30 09:00:00 18.8 3.8 10.9--- 3750.0wx-2wx--2- 809.6 0.8---------
2019-06-30 08:00:00 17.0 2.9 9.7--- 3950.0wx-1wx--1- 809.3 0.9---------
2019-06-30 07:00:00 15.6 -0.2 8.0--- 3450.0wx-3wx--3- 809.0 0.9---------
2019-06-30 06:00:00 14.8 -0.5 7.5 14.9 8.6- 3550.0wx-3wx--3- 808.8 0.9- 0.012----- 11.1
2019-06-30 05:00:00 14.6 -1.1 7.2--- 3450.0wx-2wx--2- 808.4 0.6---------
2019-06-30 04:00:00 13.8 -1.0 6.8--- 3650.0wx-4wx---- 808.1 0.2---------
2019-06-30 03:00:00 12.9 -4.7 5.3--- 2950.0wx-4wx--4- 807.9 0.0---------
2019-06-30 02:00:00 11.4 -3.9 4.7--- 3450.0wx-5wx--5- 807.8 -0.3---------
2019-06-30 01:00:00 9.9 2.3 5.9--- 5950.0wx-4wx--4- 807.9 -0.3---------
2019-06-30 00:00:00 9.4 4.0 6.3--- 6950.0wx-4wx---- 807.9 -0.1---------
2019-06-29 23:00:00 8.9 6.0 7.1--- 8250.0wx-3wx---- 808.1 0.1---------
2019-06-29 22:00:00 8.7 5.8 6.9--- 8250.0wx-wx5wx---- 808.2 0.4---------
2019-06-29 21:00:00 8.8 5.9 7.0--- 8250.0wx-wx6wx---- 808.0 0.2---------
2019-06-29 20:00:00 8.8 6.2 7.1--- 8450.0wx-wx5wx--5- 808.0 0.5---------
2019-06-29 19:00:00 9.3 5.8 7.1--- 7950.0wx-wx4wx--4- 807.8 0.2---------
2019-06-29 18:00:00 10.9 6.4 8.2 13.7 4.7- 7450.0wxwxwxwx5wx--5- 807.8 0.2- 0.012------
2019-06-29 17:00:00 12.3 6.3 8.8--- 6750.0wxwxwxwx3wx---- 807.5 0.0---------
2019-06-29 16:00:00 12.6 4.8 8.3--- 5950.0wxwxwxwx3wx---- 807.6 0.0---------
2019-06-29 15:00:00 13.1 5.7 8.9--- 6150.0wxwxwxwx4wx--4- 807.6 0.0---------
2019-06-29 14:00:00 13.3 5.4 8.9--- 5950.0wxwxwxwx3wx---- 807.5 -0.1---------
2019-06-29 13:00:00 12.4 4.6 8.1--- 5950.0wxwxwxwx3wx---- 807.6 0.2---------
2019-06-29 12:00:00 11.0 3.5 6.9--- 6050.0wxwxwxwx3wx--3- 807.6 0.5- 0.06wx-w1--
2019-06-29 11:00:00 10.5 2.6 6.3--- 5850.0wxwxwxwx3wx--3- 807.6 0.7---------
2019-06-29 10:00:00 9.3 2.2 5.5--- 6150.0wxwxwxwx4wx--4- 807.4 0.6---------
2019-06-29 09:00:00 7.7 3.7 5.3--- 7650.0wxwxwxwx5wx--5- 807.1 0.8---wx-w1--
2019-06-29 08:00:00 6.7 4.7 5.4--- 8750.0wxwxwxwx4wx--4- 806.9 0.7---------
2019-06-29 07:00:00 4.8 4.8 4.7--- 10030.0wxwxwxwxwx7wx--7- 806.8 0.7---wx-w1--
2019-06-29 06:00:00 5.2 5.2 5.1 5.5 4.5- 1000.1wx-8wx--8- 806.3 0.4- 0.012wx-w1w2- 1.6
2019-06-29 05:00:00 5.2 5.2 5.1--- 1000.1wx-9wx--9- 806.2 0.3---wx-w1w2--
2019-06-29 04:00:00 5.3 5.3 5.2--- 1000.1wx-9wx--9- 806.1 0.2---wx-w1w2--
2019-06-29 03:00:00 5.3 5.3 5.2--- 1000.1wx-8wx--8- 805.9 -0.1---wx-w1w2--
2019-06-29 02:00:00 5.3 5.3 5.2--- 1000.1wx-9wx--9- 805.9 0.0---wx-w1w2--
2019-06-29 01:00:00 5.3 5.3 5.2--- 1000.1wx-7wx--7- 805.9 -0.1---wx-w1w2--
2019-06-29 00:00:00 5.3 5.3 5.2--- 1000.1wx-10wx--10- 806.0 0.1- 0.06wx-w1--
1.9 ms

 

Print Friendly, PDF & Email